PWSweather.com
Personal Weather Stations
Station Observations
WD4JKH
Forsyth, GA 31029

Forsyth, GA 31029

Lat: 33.033225, Lon: -83.927995

Elevation: 709

Station Type: Davis Vantage VUE

High Low Average
Temperature 72.2°F22.3°C 51.9°F11.1°C 59.4°F15.2°C
Dew Point 66.7°F19.3°C 44.2°F6.8°C 57.5°F14.2°C
Winds 12.6 mph 20.3 kmh Calm Calm 4.0 mph SW6.4 kmh SW
Wind Gusts 27.0 mph43.5 kmh 2.0 mph3.2 kmh 11.0 mph17.7 kmh
Humidity 99% 71% 94%
Pressure 30.07 in1018.3 mb 29.81 in1009.5 mb -
Precipitation 0.29 in7.4 mm - -
Hour Temp Dew Point Humidity Winds Wind Gusts Pressure Precip Precip Rate Daily Precip Total
12:02 AM 54.2°F12.3°C 53.9°F12.2°C 99% 1.6 mph SE2.6 kmh SE 4.0 mph6.4 kmh 30.07 in1018.3 mb 0.00 in0.0 mm 0.00 in0.0 mm 0.00 in0.0 mm
12:07 AM 54.3°F12.4°C 54.0°F12.2°C 99% 1.5 mph SE2.4 kmh SE 4.0 mph6.4 kmh 30.07 in1018.3 mb 0.00 in0.0 mm 0.00 in0.0 mm 0.00 in0.0 mm
12:12 AM 54.5°F12.5°C 54.2°F12.3°C 99% 1.2 mph SE1.9 kmh SE 4.0 mph6.4 kmh 30.07 in1018.3 mb 0.00 in0.0 mm 0.00 in0.0 mm 0.00 in0.0 mm
12:17 AM 54.5°F12.5°C 54.2°F12.3°C 99% 1.0 mph SE1.6 kmh SE 4.0 mph6.4 kmh 30.07 in1018.3 mb 0.00 in0.0 mm 0.00 in0.0 mm 0.00 in0.0 mm
12:22 AM 54.6°F12.6°C 54.3°F12.4°C 99% 1.0 mph SE1.6 kmh SE 3.0 mph4.8 kmh 30.07 in1018.3 mb 0.00 in0.0 mm 0.00 in0.0 mm 0.00 in0.0 mm
12:27 AM 54.7°F12.6°C 54.4°F12.4°C 99% 1.0 mph ESE1.6 kmh ESE 3.0 mph4.8 kmh 30.07 in1018.3 mb 0.00 in0.0 mm 0.00 in0.0 mm 0.00 in0.0 mm
12:32 AM 54.8°F12.7°C 54.5°F12.5°C 99% Calm Calm 3.0 mph4.8 kmh 30.06 in1017.9 mb 0.00 in0.0 mm 0.00 in0.0 mm 0.00 in0.0 mm
12:37 AM 54.9°F12.7°C 54.6°F12.6°C 99% 1.3 mph SE2.1 kmh SE 3.0 mph4.8 kmh 30.06 in1017.9 mb 0.00 in0.0 mm 0.00 in0.0 mm 0.00 in0.0 mm
12:42 AM 54.9°F12.7°C 54.6°F12.6°C 99% 1.2 mph SE1.9 kmh SE 3.0 mph4.8 kmh 30.06 in1017.9 mb 0.00 in0.0 mm 0.00 in0.0 mm 0.00 in0.0 mm
12:47 AM 55.0°F12.8°C 54.7°F12.6°C 99% 1.3 mph SE2.1 kmh SE 3.0 mph4.8 kmh 30.06 in1017.9 mb 0.00 in0.0 mm 0.00 in0.0 mm 0.00 in0.0 mm
12:52 AM 55.1°F12.8°C 54.8°F12.7°C 99% 1.1 mph SE1.8 kmh SE 3.0 mph4.8 kmh 30.06 in1017.9 mb 0.00 in0.0 mm 0.00 in0.0 mm 0.00 in0.0 mm
12:57 AM 55.3°F12.9°C 55.0°F12.8°C 99% 1.5 mph SE2.4 kmh SE 3.0 mph4.8 kmh 30.06 in1017.9 mb 0.00 in0.0 mm 0.00 in0.0 mm 0.00 in0.0 mm
01:02 AM 55.5°F13.1°C 55.2°F12.9°C 99% 1.2 mph SE1.9 kmh SE 3.0 mph4.8 kmh 30.05 in1017.6 mb 0.00 in0.0 mm 0.00 in0.0 mm 0.00 in0.0 mm
01:07 AM 55.5°F13.1°C 55.2°F12.9°C 99% 1.7 mph SE2.7 kmh SE 3.0 mph4.8 kmh 30.05 in1017.6 mb 0.00 in0.0 mm 0.00 in0.0 mm 0.00 in0.0 mm
01:12 AM 55.7°F13.2°C 55.4°F13.0°C 99% 1.2 mph SSE1.9 kmh SSE 3.0 mph4.8 kmh 30.05 in1017.6 mb 0.00 in0.0 mm 0.00 in0.0 mm 0.00 in0.0 mm
01:17 AM 55.9°F13.3°C 55.6°F13.1°C 99% 1.3 mph SSE2.1 kmh SSE 4.0 mph6.4 kmh 30.05 in1017.6 mb 0.00 in0.0 mm 0.00 in0.0 mm 0.00 in0.0 mm
01:22 AM 56.0°F13.3°C 55.7°F13.2°C 99% 1.7 mph SSE2.7 kmh SSE 4.0 mph6.4 kmh 30.05 in1017.6 mb 0.00 in0.0 mm 0.00 in0.0 mm 0.00 in0.0 mm
01:27 AM 56.1°F13.4°C 55.8°F13.2°C 99% 2.2 mph S3.5 kmh S 4.0 mph6.4 kmh 30.04 in1017.3 mb 0.00 in0.0 mm 0.00 in0.0 mm 0.00 in0.0 mm
01:32 AM 56.2°F13.4°C 55.9°F13.3°C 99% 2.9 mph SSE4.7 kmh SSE 7.0 mph11.3 kmh 30.04 in1017.3 mb 0.00 in0.0 mm 0.00 in0.0 mm 0.00 in0.0 mm
01:37 AM 56.2°F13.4°C 55.9°F13.3°C 99% 2.7 mph SSE4.3 kmh SSE 7.0 mph11.3 kmh 30.04 in1017.3 mb 0.00 in0.0 mm 0.00 in0.0 mm 0.00 in0.0 mm
01:42 AM 56.2°F13.4°C 55.9°F13.3°C 99% 3.4 mph SSE5.5 kmh SSE 7.0 mph11.3 kmh 30.04 in1017.3 mb 0.00 in0.0 mm 0.00 in0.0 mm 0.00 in0.0 mm
01:47 AM 56.2°F13.4°C 55.9°F13.3°C 99% 1.9 mph SSE3.1 kmh SSE 7.0 mph11.3 kmh 30.04 in1017.3 mb 0.00 in0.0 mm 0.00 in0.0 mm 0.00 in0.0 mm
01:52 AM 56.3°F13.5°C 56.0°F13.3°C 99% 3.5 mph SSE5.6 kmh SSE 7.0 mph11.3 kmh 30.04 in1017.3 mb 0.00 in0.0 mm 0.00 in0.0 mm 0.00 in0.0 mm
01:57 AM 56.3°F13.5°C 56.0°F13.3°C 99% 2.6 mph S4.2 kmh S 10.0 mph16.1 kmh 30.04 in1017.3 mb 0.00 in0.0 mm 0.00 in0.0 mm 0.00 in0.0 mm
02:02 AM 56.3°F13.5°C 56.0°F13.3°C 99% 2.0 mph SSE3.2 kmh SSE 10.0 mph16.1 kmh 30.04 in1017.3 mb 0.00 in0.0 mm 0.00 in0.0 mm 0.00 in0.0 mm
02:07 AM 56.2°F13.4°C 55.9°F13.3°C 99% 2.7 mph S4.3 kmh S 10.0 mph16.1 kmh 30.04 in1017.3 mb 0.00 in0.0 mm 0.00 in0.0 mm 0.00 in0.0 mm
02:12 AM 56.1°F13.4°C 55.8°F13.2°C 99% 2.3 mph S3.7 kmh S 10.0 mph16.1 kmh 30.04 in1017.3 mb 0.00 in0.0 mm 0.00 in0.0 mm 0.00 in0.0 mm
02:17 AM 56.1°F13.4°C 55.8°F13.2°C 99% 2.6 mph SSE4.2 kmh SSE 7.0 mph11.3 kmh 30.04 in1017.3 mb 0.00 in0.0 mm 0.00 in0.0 mm 0.00 in0.0 mm
02:22 AM 56.0°F13.3°C 55.7°F13.2°C 99% 2.1 mph SSW3.4 kmh SSW 7.0 mph11.3 kmh 30.03 in1016.9 mb 0.00 in0.0 mm 0.00 in0.0 mm 0.00 in0.0 mm
02:28 AM 56.0°F13.3°C 55.7°F13.2°C 99% 2.0 mph SSW3.2 kmh SSW 7.0 mph11.3 kmh 30.03 in1016.9 mb 0.00 in0.0 mm 0.00 in0.0 mm 0.00 in0.0 mm
02:32 AM 55.9°F13.3°C 55.6°F13.1°C 99% 1.3 mph S2.1 kmh S 6.0 mph9.7 kmh 30.03 in1016.9 mb 0.00 in0.0 mm 0.00 in0.0 mm 0.00 in0.0 mm
02:37 AM 55.9°F13.3°C 55.6°F13.1°C 99% 2.2 mph SSE3.5 kmh SSE 5.0 mph8.0 kmh 30.03 in1016.9 mb 0.00 in0.0 mm 0.00 in0.0 mm 0.00 in0.0 mm
02:43 AM 55.8°F13.2°C 55.5°F13.1°C 99% 2.6 mph S4.2 kmh S 5.0 mph8.0 kmh 30.02 in1016.6 mb 0.00 in0.0 mm 0.00 in0.0 mm 0.00 in0.0 mm
02:48 AM 55.8°F13.2°C 55.5°F13.1°C 99% 1.8 mph SSE2.9 kmh SSE 5.0 mph8.0 kmh 30.02 in1016.6 mb 0.00 in0.0 mm 0.00 in0.0 mm 0.00 in0.0 mm
02:53 AM 55.8°F13.2°C 55.5°F13.1°C 99% 3.4 mph SSE5.5 kmh SSE 5.0 mph8.0 kmh 30.02 in1016.6 mb 0.00 in0.0 mm 0.00 in0.0 mm 0.00 in0.0 mm
02:57 AM 55.8°F13.2°C 55.5°F13.1°C 99% 2.0 mph SSE3.2 kmh SSE 5.0 mph8.0 kmh 30.02 in1016.6 mb 0.00 in0.0 mm 0.00 in0.0 mm 0.00 in0.0 mm
03:02 AM 55.8°F13.2°C 55.5°F13.1°C 99% 1.2 mph S1.9 kmh S 5.0 mph8.0 kmh 30.02 in1016.6 mb 0.00 in0.0 mm 0.00 in0.0 mm 0.00 in0.0 mm
03:08 AM 55.7°F13.2°C 55.4°F13.0°C 99% 2.2 mph SE3.5 kmh SE 5.0 mph8.0 kmh 30.02 in1016.6 mb 0.00 in0.0 mm 0.00 in0.0 mm 0.00 in0.0 mm
03:13 AM 55.7°F13.2°C 55.4°F13.0°C 99% 1.2 mph SE1.9 kmh SE 5.0 mph8.0 kmh 30.02 in1016.6 mb 0.00 in0.0 mm 0.00 in0.0 mm 0.00 in0.0 mm
03:18 AM 55.7°F13.2°C 55.4°F13.0°C 99% 1.6 mph SSE2.6 kmh SSE 5.0 mph8.0 kmh 30.02 in1016.6 mb 0.00 in0.0 mm 0.00 in0.0 mm 0.00 in0.0 mm
03:23 AM 55.7°F13.2°C 55.4°F13.0°C 99% 1.1 mph S1.8 kmh S 4.0 mph6.4 kmh 30.02 in1016.6 mb 0.00 in0.0 mm 0.00 in0.0 mm 0.00 in0.0 mm
03:28 AM 55.7°F13.2°C 55.4°F13.0°C 99% 1.4 mph S2.3 kmh S 4.0 mph6.4 kmh 30.02 in1016.6 mb 0.00 in0.0 mm 0.00 in0.0 mm 0.00 in0.0 mm
03:33 AM 55.7°F13.2°C 55.4°F13.0°C 99% Calm Calm 3.0 mph4.8 kmh 30.02 in1016.6 mb 0.00 in0.0 mm 0.00 in0.0 mm 0.00 in0.0 mm
03:36 AM 55.6°F13.1°C 55.3°F12.9°C 99% Calm Calm 3.0 mph4.8 kmh 30.02 in1016.6 mb 0.00 in0.0 mm 0.00 in0.0 mm 0.00 in0.0 mm
03:41 AM 55.7°F13.2°C 55.4°F13.0°C 99% 1.5 mph SSW2.4 kmh SSW 2.0 mph3.2 kmh 30.02 in1016.6 mb 0.00 in0.0 mm 0.00 in0.0 mm 0.00 in0.0 mm
03:46 AM 55.6°F13.1°C 55.3°F12.9°C 99% Calm Calm 2.0 mph3.2 kmh 30.01 in1016.3 mb 0.00 in0.0 mm 0.00 in0.0 mm 0.00 in0.0 mm
03:51 AM 55.6°F13.1°C 55.3°F12.9°C 99% Calm Calm 2.0 mph3.2 kmh 30.01 in1016.3 mb 0.00 in0.0 mm 0.00 in0.0 mm 0.00 in0.0 mm
03:56 AM 55.6°F13.1°C 55.3°F12.9°C 99% 1.0 mph SE1.6 kmh SE 2.0 mph3.2 kmh 30.01 in1016.3 mb 0.00 in0.0 mm 0.00 in0.0 mm 0.00 in0.0 mm
04:01 AM 55.6°F13.1°C 55.3°F12.9°C 99% 1.6 mph SSE2.6 kmh SSE 2.0 mph3.2 kmh 30.01 in1016.3 mb 0.00 in0.0 mm 0.00 in0.0 mm 0.00 in0.0 mm
04:06 AM 55.6°F13.1°C 55.3°F12.9°C 99% 1.9 mph SSE3.1 kmh SSE 2.0 mph3.2 kmh 30.01 in1016.3 mb 0.00 in0.0 mm 0.00 in0.0 mm 0.00 in0.0 mm
04:11 AM 55.6°F13.1°C 55.3°F12.9°C 99% 1.0 mph SSE1.6 kmh SSE 2.0 mph3.2 kmh 30.01 in1016.3 mb 0.00 in0.0 mm 0.00 in0.0 mm 0.00 in0.0 mm
04:16 AM 55.6°F13.1°C 55.3°F12.9°C 99% 1.0 mph S1.6 kmh S 2.0 mph3.2 kmh 30.01 in1016.3 mb 0.00 in0.0 mm 0.00 in0.0 mm 0.00 in0.0 mm
04:21 AM 55.6°F13.1°C 55.3°F12.9°C 99% 1.0 mph SSE1.6 kmh SSE 2.0 mph3.2 kmh 30.01 in1016.3 mb 0.00 in0.0 mm 0.00 in0.0 mm 0.00 in0.0 mm
04:26 AM 55.7°F13.2°C 55.4°F13.0°C 99% 1.6 mph SE2.6 kmh SE 3.0 mph4.8 kmh 30.00 in1015.9 mb 0.00 in0.0 mm 0.00 in0.0 mm 0.00 in0.0 mm
04:31 AM 55.7°F13.2°C 55.4°F13.0°C 99% 1.6 mph SE2.6 kmh SE 3.0 mph4.8 kmh 30.00 in1015.9 mb 0.00 in0.0 mm 0.00 in0.0 mm 0.00 in0.0 mm
04:36 AM 55.7°F13.2°C 55.4°F13.0°C 99% 1.6 mph SE2.6 kmh SE 3.0 mph4.8 kmh 30.00 in1015.9 mb 0.00 in0.0 mm 0.00 in0.0 mm 0.00 in0.0 mm
04:41 AM 55.8°F13.2°C 55.5°F13.1°C 99% 1.6 mph SE2.6 kmh SE 4.0 mph6.4 kmh 29.99 in1015.6 mb 0.00 in0.0 mm 0.00 in0.0 mm 0.00 in0.0 mm
04:46 AM 55.8°F13.2°C 55.5°F13.1°C 99% 2.4 mph SE3.9 kmh SE 5.0 mph8.0 kmh 29.99 in1015.6 mb 0.00 in0.0 mm 0.00 in0.0 mm 0.00 in0.0 mm
04:51 AM 55.8°F13.2°C 55.5°F13.1°C 99% 1.2 mph SE1.9 kmh SE 5.0 mph8.0 kmh 29.99 in1015.6 mb 0.00 in0.0 mm 0.00 in0.0 mm 0.00 in0.0 mm
04:56 AM 55.9°F13.3°C 55.6°F13.1°C 99% 2.0 mph SSE3.2 kmh SSE 6.0 mph9.7 kmh 30.00 in1015.9 mb 0.00 in0.0 mm 0.00 in0.0 mm 0.00 in0.0 mm
05:01 AM 55.9°F13.3°C 55.6°F13.1°C 99% 1.6 mph SE2.6 kmh SE 6.0 mph9.7 kmh 30.00 in1015.9 mb 0.00 in0.0 mm 0.00 in0.0 mm 0.00 in0.0 mm
05:06 AM 55.9°F13.3°C 55.6°F13.1°C 99% 1.6 mph SE2.6 kmh SE 6.0 mph9.7 kmh 30.00 in1015.9 mb 0.00 in0.0 mm 0.00 in0.0 mm 0.00 in0.0 mm
05:11 AM 56.0°F13.3°C 55.7°F13.2°C 99% 1.6 mph SE2.6 kmh SE 6.0 mph9.7 kmh 30.00 in1015.9 mb 0.00 in0.0 mm 0.00 in0.0 mm 0.00 in0.0 mm
05:16 AM 56.2°F13.4°C 55.9°F13.3°C 99% 1.5 mph SSE2.4 kmh SSE 3.0 mph4.8 kmh 29.99 in1015.6 mb 0.00 in0.0 mm 0.00 in0.0 mm 0.00 in0.0 mm
05:21 AM 56.4°F13.6°C 56.1°F13.4°C 99% 2.1 mph SSE3.4 kmh SSE 4.0 mph6.4 kmh 29.99 in1015.6 mb 0.00 in0.0 mm 0.00 in0.0 mm 0.00 in0.0 mm
05:26 AM 56.6°F13.7°C 56.3°F13.5°C 99% 1.8 mph SSE2.9 kmh SSE 5.0 mph8.0 kmh 29.99 in1015.6 mb 0.00 in0.0 mm 0.00 in0.0 mm 0.00 in0.0 mm
05:32 AM 56.8°F13.8°C 56.5°F13.6°C 99% 2.8 mph SSE4.5 kmh SSE 6.0 mph9.7 kmh 29.99 in1015.6 mb 0.00 in0.0 mm 0.00 in0.0 mm 0.00 in0.0 mm
05:36 AM 57.0°F13.9°C 56.7°F13.7°C 99% 2.4 mph S3.9 kmh S 6.0 mph9.7 kmh 29.99 in1015.6 mb 0.00 in0.0 mm 0.00 in0.0 mm 0.00 in0.0 mm
05:42 AM 57.1°F13.9°C 56.8°F13.8°C 99% 2.2 mph SSE3.5 kmh SSE 6.0 mph9.7 kmh 29.99 in1015.6 mb 0.00 in0.0 mm 0.00 in0.0 mm 0.00 in0.0 mm
05:47 AM 57.2°F14.0°C 56.9°F13.8°C 99% 1.9 mph S3.1 kmh S 8.0 mph12.9 kmh 29.99 in1015.6 mb 0.00 in0.0 mm 0.00 in0.0 mm 0.00 in0.0 mm
05:52 AM 57.3°F14.1°C 57.0°F13.9°C 99% 2.6 mph S4.2 kmh S 8.0 mph12.9 kmh 29.99 in1015.6 mb 0.00 in0.0 mm 0.00 in0.0 mm 0.00 in0.0 mm
05:57 AM 57.4°F14.1°C 57.1°F13.9°C 99% 2.3 mph S3.7 kmh S 8.0 mph12.9 kmh 29.99 in1015.6 mb 0.00 in0.0 mm 0.00 in0.0 mm 0.00 in0.0 mm
06:02 AM 57.4°F14.1°C 57.1°F13.9°C 99% 3.6 mph SSW5.8 kmh SSW 8.0 mph12.9 kmh 29.99 in1015.6 mb 0.00 in0.0 mm 0.00 in0.0 mm 0.00 in0.0 mm
06:07 AM 57.5°F14.2°C 57.2°F14.0°C 99% 2.1 mph SSW3.4 kmh SSW 7.0 mph11.3 kmh 29.99 in1015.6 mb 0.00 in0.0 mm 0.00 in0.0 mm 0.00 in0.0 mm
06:12 AM 57.5°F14.2°C 57.2°F14.0°C 99% 3.0 mph SSW4.8 kmh SSW 7.0 mph11.3 kmh 29.99 in1015.6 mb 0.00 in0.0 mm 0.00 in0.0 mm 0.00 in0.0 mm
06:17 AM 57.4°F14.1°C 57.1°F13.9°C 99% 4.8 mph SW7.7 kmh SW 9.0 mph14.5 kmh 29.99 in1015.6 mb 0.00 in0.0 mm 0.00 in0.0 mm 0.00 in0.0 mm
06:22 AM 57.3°F14.1°C 57.0°F13.9°C 99% 2.4 mph S3.9 kmh S 9.0 mph14.5 kmh 29.99 in1015.6 mb 0.00 in0.0 mm 0.00 in0.0 mm 0.00 in0.0 mm
06:27 AM 57.3°F14.1°C 57.0°F13.9°C 99% 1.6 mph S2.6 kmh S 9.0 mph14.5 kmh 29.99 in1015.6 mb 0.00 in0.0 mm 0.00 in0.0 mm 0.00 in0.0 mm
06:32 AM 57.3°F14.1°C 57.0°F13.9°C 99% 2.3 mph S3.7 kmh S 9.0 mph14.5 kmh 29.99 in1015.6 mb 0.00 in0.0 mm 0.00 in0.0 mm 0.00 in0.0 mm
06:37 AM 57.3°F14.1°C 57.0°F13.9°C 99% 2.5 mph S4.0 kmh S 6.0 mph9.7 kmh 29.99 in1015.6 mb 0.00 in0.0 mm 0.00 in0.0 mm 0.00 in0.0 mm
06:42 AM 57.2°F14.0°C 56.9°F13.8°C 99% 2.6 mph S4.2 kmh S 6.0 mph9.7 kmh 29.99 in1015.6 mb 0.00 in0.0 mm 0.00 in0.0 mm 0.00 in0.0 mm
06:47 AM 57.2°F14.0°C 56.9°F13.8°C 99% 2.0 mph S3.2 kmh S 6.0 mph9.7 kmh 29.98 in1015.2 mb 0.00 in0.0 mm 0.00 in0.0 mm 0.00 in0.0 mm
06:52 AM 57.3°F14.1°C 57.0°F13.9°C 99% 2.4 mph S3.9 kmh S 6.0 mph9.7 kmh 29.98 in1015.2 mb 0.00 in0.0 mm 0.00 in0.0 mm 0.00 in0.0 mm
06:57 AM 57.4°F14.1°C 57.1°F13.9°C 99% 2.2 mph SSE3.5 kmh SSE 6.0 mph9.7 kmh 29.98 in1015.2 mb 0.00 in0.0 mm 0.00 in0.0 mm 0.00 in0.0 mm
07:02 AM 57.4°F14.1°C 57.1°F13.9°C 99% 1.8 mph S2.9 kmh S 6.0 mph9.7 kmh 29.98 in1015.2 mb 0.00 in0.0 mm 0.00 in0.0 mm 0.00 in0.0 mm
07:07 AM 57.4°F14.1°C 57.1°F13.9°C 99% 2.0 mph S3.2 kmh S 6.0 mph9.7 kmh 29.98 in1015.2 mb 0.00 in0.0 mm 0.00 in0.0 mm 0.00 in0.0 mm
07:12 AM 57.4°F14.1°C 57.1°F13.9°C 99% 1.1 mph SSW1.8 kmh SSW 5.0 mph8.0 kmh 29.98 in1015.2 mb 0.00 in0.0 mm 0.00 in0.0 mm 0.00 in0.0 mm
07:17 AM 57.5°F14.2°C 57.2°F14.0°C 99% 1.3 mph SSW2.1 kmh SSW 5.0 mph8.0 kmh 29.99 in1015.6 mb 0.00 in0.0 mm 0.00 in0.0 mm 0.00 in0.0 mm
07:22 AM 57.5°F14.2°C 57.2°F14.0°C 99% 1.3 mph SSE2.1 kmh SSE 4.0 mph6.4 kmh 29.99 in1015.6 mb 0.00 in0.0 mm 0.00 in0.0 mm 0.00 in0.0 mm
07:27 AM 57.6°F14.2°C 57.3°F14.1°C 99% 2.0 mph S3.2 kmh S 4.0 mph6.4 kmh 29.99 in1015.6 mb 0.00 in0.0 mm 0.00 in0.0 mm 0.00 in0.0 mm
07:32 AM 57.6°F14.2°C 57.3°F14.1°C 99% 1.8 mph S2.9 kmh S 4.0 mph6.4 kmh 29.99 in1015.6 mb 0.00 in0.0 mm 0.00 in0.0 mm 0.00 in0.0 mm
07:37 AM 57.7°F14.3°C 57.4°F14.1°C 99% 1.2 mph SSE1.9 kmh SSE 4.0 mph6.4 kmh 29.99 in1015.6 mb 0.00 in0.0 mm 0.00 in0.0 mm 0.00 in0.0 mm
07:42 AM 57.7°F14.3°C 57.4°F14.1°C 99% 1.1 mph SSE1.8 kmh SSE 4.0 mph6.4 kmh 29.98 in1015.2 mb 0.00 in0.0 mm 0.00 in0.0 mm 0.00 in0.0 mm
07:47 AM 57.8°F14.3°C 57.5°F14.2°C 99% 2.6 mph SSE4.2 kmh SSE 6.0 mph9.7 kmh 29.98 in1015.2 mb 0.00 in0.0 mm 0.00 in0.0 mm 0.00 in0.0 mm
07:52 AM 58.0°F14.4°C 57.7°F14.3°C 99% 3.0 mph SE4.8 kmh SE 6.0 mph9.7 kmh 29.97 in1014.9 mb 0.00 in0.0 mm 0.00 in0.0 mm 0.00 in0.0 mm
07:57 AM 58.1°F14.5°C 57.8°F14.3°C 99% 3.7 mph SE6.0 kmh SE 6.0 mph9.7 kmh 29.97 in1014.9 mb 0.00 in0.0 mm 0.00 in0.0 mm 0.00 in0.0 mm
08:02 AM 58.4°F14.7°C 58.1°F14.5°C 99% 2.7 mph SSE4.3 kmh SSE 6.0 mph9.7 kmh 29.97 in1014.9 mb 0.00 in0.0 mm 0.00 in0.0 mm 0.00 in0.0 mm
08:07 AM 58.6°F14.8°C 58.3°F14.6°C 99% 1.9 mph SSE3.1 kmh SSE 6.0 mph9.7 kmh 29.97 in1014.9 mb 0.00 in0.0 mm 0.00 in0.0 mm 0.00 in0.0 mm
08:12 AM 58.8°F14.9°C 58.5°F14.7°C 99% 3.5 mph SSE5.6 kmh SSE 7.0 mph11.3 kmh 29.97 in1014.9 mb 0.00 in0.0 mm 0.00 in0.0 mm 0.00 in0.0 mm
08:17 AM 58.9°F14.9°C 58.6°F14.8°C 99% 3.9 mph SSE6.3 kmh SSE 9.0 mph14.5 kmh 29.97 in1014.9 mb 0.01 in0.3 mm 0.12 in3.0 mm 0.01 in0.3 mm
08:22 AM 59.1°F15.1°C 58.8°F14.9°C 99% 3.7 mph SSE6.0 kmh SSE 9.0 mph14.5 kmh 29.97 in1014.9 mb 0.01 in0.3 mm 0.00 in0.0 mm 0.01 in0.3 mm
08:27 AM 59.3°F15.2°C 59.0°F15.0°C 99% 2.4 mph SSE3.9 kmh SSE 9.0 mph14.5 kmh 29.97 in1014.9 mb 0.01 in0.3 mm 0.00 in0.0 mm 0.01 in0.3 mm
08:32 AM 59.4°F15.2°C 59.1°F15.1°C 99% 2.5 mph S4.0 kmh S 9.0 mph14.5 kmh 29.97 in1014.9 mb 0.01 in0.3 mm 0.00 in0.0 mm 0.01 in0.3 mm
08:37 AM 59.4°F15.2°C 59.1°F15.1°C 99% 2.4 mph SSE3.9 kmh SSE 9.0 mph14.5 kmh 29.98 in1015.2 mb 0.01 in0.3 mm 0.00 in0.0 mm 0.01 in0.3 mm
08:42 AM 59.5°F15.3°C 59.2°F15.1°C 99% 2.0 mph SSW3.2 kmh SSW 9.0 mph14.5 kmh 29.98 in1015.2 mb 0.01 in0.3 mm 0.00 in0.0 mm 0.01 in0.3 mm
08:47 AM 59.5°F15.3°C 59.2°F15.1°C 99% 1.8 mph WSW2.9 kmh WSW 7.0 mph11.3 kmh 29.98 in1015.2 mb 0.01 in0.3 mm 0.00 in0.0 mm 0.01 in0.3 mm
08:52 AM 59.4°F15.2°C 59.1°F15.1°C 99% 1.4 mph WSW2.3 kmh WSW 6.0 mph9.7 kmh 29.98 in1015.2 mb 0.01 in0.3 mm 0.00 in0.0 mm 0.01 in0.3 mm
08:57 AM 59.2°F15.1°C 58.9°F14.9°C 99% Calm Calm 3.0 mph4.8 kmh 29.98 in1015.2 mb 0.01 in0.3 mm 0.00 in0.0 mm 0.01 in0.3 mm
09:02 AM 59.1°F15.1°C 58.8°F14.9°C 99% 1.0 mph SW1.6 kmh SW 3.0 mph4.8 kmh 29.98 in1015.2 mb 0.02 in0.5 mm 0.01 in0.3 mm 0.02 in0.5 mm
09:07 AM 59.0°F15.0°C 58.7°F14.8°C 99% 1.5 mph SSE2.4 kmh SSE 3.0 mph4.8 kmh 29.97 in1014.9 mb 0.03 in0.8 mm 0.12 in3.0 mm 0.03 in0.8 mm
09:12 AM 59.2°F15.1°C 58.9°F14.9°C 99% 3.8 mph SE6.1 kmh SE 7.0 mph11.3 kmh 29.97 in1014.9 mb 0.03 in0.8 mm 0.00 in0.0 mm 0.03 in0.8 mm
09:17 AM 59.8°F15.4°C 59.5°F15.3°C 99% 4.4 mph SSE7.1 kmh SSE 9.0 mph14.5 kmh 29.97 in1014.9 mb 0.02 in0.5 mm 0.00 in0.0 mm 0.03 in0.8 mm
09:22 AM 60.3°F15.7°C 60.0°F15.6°C 99% 3.7 mph SE6.0 kmh SE 9.0 mph14.5 kmh 29.95 in1014.2 mb 0.02 in0.5 mm 0.00 in0.0 mm 0.03 in0.8 mm
09:27 AM 60.9°F16.1°C 60.6°F15.9°C 99% 7.8 mph SSE12.6 kmh SSE 19.0 mph30.6 kmh 29.94 in1013.9 mb 0.03 in0.8 mm 0.12 in3.0 mm 0.04 in1.0 mm
09:32 AM 61.4°F16.3°C 61.1°F16.2°C 99% 8.1 mph SSE13.0 kmh SSE 19.0 mph30.6 kmh 29.94 in1013.9 mb 0.03 in0.8 mm 0.00 in0.0 mm 0.04 in1.0 mm
09:36 AM 61.5°F16.4°C 61.2°F16.2°C 99% 8.0 mph SE12.9 kmh SE 19.0 mph30.6 kmh 29.94 in1013.9 mb 0.03 in0.8 mm 0.00 in0.0 mm 0.04 in1.0 mm
09:41 AM 61.7°F16.5°C 61.4°F16.3°C 99% 5.6 mph S9.0 kmh S 20.0 mph32.2 kmh 29.95 in1014.2 mb 0.03 in0.8 mm 0.00 in0.0 mm 0.04 in1.0 mm
09:46 AM 61.9°F16.6°C 61.6°F16.4°C 99% 5.1 mph SSW8.2 kmh SSW 20.0 mph32.2 kmh 29.95 in1014.2 mb 0.03 in0.8 mm 0.00 in0.0 mm 0.04 in1.0 mm
09:51 AM 62.1°F16.7°C 61.8°F16.6°C 99% 5.5 mph S8.9 kmh S 20.0 mph32.2 kmh 29.95 in1014.2 mb 0.03 in0.8 mm 0.00 in0.0 mm 0.04 in1.0 mm
09:56 AM 62.2°F16.8°C 61.9°F16.6°C 99% 5.5 mph S8.9 kmh S 15.0 mph24.1 kmh 29.95 in1014.2 mb 0.03 in0.8 mm 0.00 in0.0 mm 0.04 in1.0 mm
10:01 AM 62.4°F16.9°C 62.1°F16.7°C 99% 4.4 mph S7.1 kmh S 15.0 mph24.1 kmh 29.95 in1014.2 mb 0.03 in0.8 mm 0.00 in0.0 mm 0.04 in1.0 mm
10:06 AM 62.5°F16.9°C 62.2°F16.8°C 99% 4.9 mph S7.9 kmh S 15.0 mph24.1 kmh 29.95 in1014.2 mb 0.01 in0.3 mm 0.00 in0.0 mm 0.04 in1.0 mm
10:11 AM 62.5°F16.9°C 62.2°F16.8°C 99% 4.1 mph S6.6 kmh S 15.0 mph24.1 kmh 29.95 in1014.2 mb 0.01 in0.3 mm 0.00 in0.0 mm 0.04 in1.0 mm
10:16 AM 62.6°F17.0°C 62.3°F16.8°C 99% 3.3 mph S5.3 kmh S 15.0 mph24.1 kmh 29.94 in1013.9 mb 0.01 in0.3 mm 0.00 in0.0 mm 0.04 in1.0 mm
10:21 AM 62.7°F17.1°C 62.4°F16.9°C 99% 4.2 mph S6.8 kmh S 12.0 mph19.3 kmh 29.94 in1013.9 mb 0.01 in0.3 mm 0.00 in0.0 mm 0.04 in1.0 mm
10:26 AM 62.9°F17.2°C 62.6°F17.0°C 99% 4.8 mph S7.7 kmh S 12.0 mph19.3 kmh 29.94 in1013.9 mb 0.00 in0.0 mm 0.00 in0.0 mm 0.04 in1.0 mm
10:31 AM 63.2°F17.3°C 62.9°F17.2°C 99% 5.4 mph S8.7 kmh S 12.0 mph19.3 kmh 29.94 in1013.9 mb 0.00 in0.0 mm 0.00 in0.0 mm 0.04 in1.0 mm
10:36 AM 63.3°F17.4°C 63.0°F17.2°C 99% 3.3 mph S5.3 kmh S 10.0 mph16.1 kmh 29.94 in1013.9 mb 0.00 in0.0 mm 0.00 in0.0 mm 0.04 in1.0 mm
10:41 AM 63.4°F17.4°C 63.1°F17.3°C 99% 5.3 mph S8.5 kmh S 10.0 mph16.1 kmh 29.94 in1013.9 mb 0.00 in0.0 mm 0.00 in0.0 mm 0.04 in1.0 mm
10:46 AM 63.5°F17.5°C 63.2°F17.3°C 99% 5.8 mph S9.3 kmh S 10.0 mph16.1 kmh 29.94 in1013.9 mb 0.00 in0.0 mm 0.00 in0.0 mm 0.04 in1.0 mm
10:51 AM 63.6°F17.6°C 63.3°F17.4°C 99% 6.1 mph S9.8 kmh S 10.0 mph16.1 kmh 29.94 in1013.9 mb 0.00 in0.0 mm 0.00 in0.0 mm 0.04 in1.0 mm
10:56 AM 63.8°F17.7°C 63.5°F17.5°C 99% 3.5 mph S5.6 kmh S 15.0 mph24.1 kmh 29.94 in1013.9 mb 0.00 in0.0 mm 0.00 in0.0 mm 0.04 in1.0 mm
11:01 AM 63.9°F17.7°C 63.6°F17.6°C 99% 4.7 mph S7.6 kmh S 15.0 mph24.1 kmh 29.94 in1013.9 mb 0.00 in0.0 mm 0.00 in0.0 mm 0.04 in1.0 mm
11:06 AM 64.2°F17.9°C 63.9°F17.7°C 99% 6.2 mph SSW10.0 kmh SSW 15.0 mph24.1 kmh 29.94 in1013.9 mb 0.00 in0.0 mm 0.00 in0.0 mm 0.04 in1.0 mm
11:11 AM 64.4°F18.0°C 64.1°F17.8°C 99% 6.0 mph SSW9.7 kmh SSW 15.0 mph24.1 kmh 29.94 in1013.9 mb 0.00 in0.0 mm 0.00 in0.0 mm 0.04 in1.0 mm
11:16 AM 65.1°F18.4°C 64.8°F18.2°C 99% 4.4 mph SSW7.1 kmh SSW 14.0 mph22.5 kmh 29.93 in1013.5 mb 0.00 in0.0 mm 0.00 in0.0 mm 0.04 in1.0 mm
11:21 AM 65.4°F18.6°C 65.1°F18.4°C 99% 4.8 mph SSW7.7 kmh SSW 14.0 mph22.5 kmh 29.93 in1013.5 mb 0.00 in0.0 mm 0.00 in0.0 mm 0.04 in1.0 mm
11:26 AM 65.6°F18.7°C 65.3°F18.5°C 99% 4.4 mph SSW7.1 kmh SSW 14.0 mph22.5 kmh 29.92 in1013.2 mb 0.00 in0.0 mm 0.00 in0.0 mm 0.04 in1.0 mm
11:31 AM 65.7°F18.7°C 65.4°F18.6°C 99% 6.6 mph SSW10.6 kmh SSW 18.0 mph29.0 kmh 29.92 in1013.2 mb 0.00 in0.0 mm 0.00 in0.0 mm 0.04 in1.0 mm
11:36 AM 66.0°F18.9°C 65.7°F18.7°C 99% 4.4 mph SSW7.1 kmh SSW 18.0 mph29.0 kmh 29.92 in1013.2 mb 0.00 in0.0 mm 0.00 in0.0 mm 0.04 in1.0 mm
11:41 AM 66.0°F18.9°C 65.7°F18.7°C 99% 5.5 mph S8.9 kmh S 18.0 mph29.0 kmh 29.92 in1013.2 mb 0.00 in0.0 mm 0.00 in0.0 mm 0.04 in1.0 mm
11:46 AM 65.9°F18.8°C 65.6°F18.7°C 99% 6.1 mph SSW9.8 kmh SSW 18.0 mph29.0 kmh 29.92 in1013.2 mb 0.00 in0.0 mm 0.00 in0.0 mm 0.04 in1.0 mm
11:51 AM 66.0°F18.9°C 65.4°F18.6°C 98% 5.5 mph SSW8.9 kmh SSW 14.0 mph22.5 kmh 29.92 in1013.2 mb 0.00 in0.0 mm 0.00 in0.0 mm 0.04 in1.0 mm
11:56 AM 66.2°F19.0°C 65.6°F18.7°C 98% 5.2 mph SSW8.4 kmh SSW 14.0 mph22.5 kmh 29.92 in1013.2 mb 0.00 in0.0 mm 0.00 in0.0 mm 0.04 in1.0 mm
12:01 PM 66.5°F19.2°C 65.6°F18.7°C 97% 5.5 mph SW8.9 kmh SW 14.0 mph22.5 kmh 29.92 in1013.2 mb 0.00 in0.0 mm 0.00 in0.0 mm 0.04 in1.0 mm
12:06 PM 66.7°F19.3°C 65.5°F18.6°C 96% 6.5 mph SSW10.5 kmh SSW 14.0 mph22.5 kmh 29.92 in1013.2 mb 0.00 in0.0 mm 0.00 in0.0 mm 0.04 in1.0 mm
12:11 PM 67.1°F19.5°C 65.3°F18.5°C 94% 6.0 mph SW9.7 kmh SW 15.0 mph24.1 kmh 29.92 in1013.2 mb 0.00 in0.0 mm 0.00 in0.0 mm 0.04 in1.0 mm
12:16 PM 67.5°F19.7°C 65.4°F18.6°C 93% 8.1 mph SSW13.0 kmh SSW 17.0 mph27.4 kmh 29.91 in1012.9 mb 0.00 in0.0 mm 0.00 in0.0 mm 0.04 in1.0 mm
12:21 PM 67.9°F19.9°C 65.5°F18.6°C 92% 8.3 mph SW13.4 kmh SW 17.0 mph27.4 kmh 29.91 in1012.9 mb 0.00 in0.0 mm 0.00 in0.0 mm 0.04 in1.0 mm
12:26 PM 68.3°F20.2°C 65.6°F18.7°C 91% 5.9 mph SSW9.5 kmh SSW 17.0 mph27.4 kmh 29.90 in1012.5 mb 0.00 in0.0 mm 0.00 in0.0 mm 0.04 in1.0 mm
12:31 PM 68.8°F20.4°C 65.7°F18.7°C 90% 6.3 mph SSW10.1 kmh SSW 17.0 mph27.4 kmh 29.89 in1012.2 mb 0.00 in0.0 mm 0.00 in0.0 mm 0.04 in1.0 mm
12:36 PM 69.2°F20.7°C 65.8°F18.8°C 89% 9.1 mph SSW14.6 kmh SSW 18.0 mph29.0 kmh 29.89 in1012.2 mb 0.00 in0.0 mm 0.00 in0.0 mm 0.04 in1.0 mm
12:41 PM 69.6°F20.9°C 65.9°F18.8°C 88% 6.1 mph SSW9.8 kmh SSW 18.0 mph29.0 kmh 29.89 in1012.2 mb 0.00 in0.0 mm 0.00 in0.0 mm 0.04 in1.0 mm
12:46 PM 70.1°F21.2°C 66.4°F19.1°C 88% 5.7 mph SSW9.2 kmh SSW 18.0 mph29.0 kmh 29.88 in1011.9 mb 0.00 in0.0 mm 0.00 in0.0 mm 0.04 in1.0 mm
12:51 PM 70.3°F21.3°C 66.3°F19.1°C 87% 9.3 mph S15.0 kmh S 23.0 mph37.0 kmh 29.88 in1011.9 mb 0.00 in0.0 mm 0.00 in0.0 mm 0.04 in1.0 mm
12:56 PM 70.6°F21.4°C 66.2°F19.0°C 86% 10.4 mph S16.7 kmh S 23.0 mph37.0 kmh 29.87 in1011.5 mb 0.00 in0.0 mm 0.00 in0.0 mm 0.04 in1.0 mm
01:01 PM 71.1°F21.7°C 66.7°F19.3°C 86% 4.8 mph SSW7.7 kmh SSW 23.0 mph37.0 kmh 29.86 in1011.2 mb 0.00 in0.0 mm 0.00 in0.0 mm 0.04 in1.0 mm
01:06 PM 71.4°F21.9°C 66.7°F19.3°C 85% 7.4 mph S11.9 kmh S 23.0 mph37.0 kmh 29.86 in1011.2 mb 0.00 in0.0 mm 0.00 in0.0 mm 0.04 in1.0 mm
01:11 PM 71.5°F21.9°C 66.1°F18.9°C 83% 7.4 mph SSW11.9 kmh SSW 18.0 mph29.0 kmh 29.86 in1011.2 mb 0.00 in0.0 mm 0.00 in0.0 mm 0.04 in1.0 mm
01:16 PM 71.3°F21.8°C 65.9°F18.8°C 83% 9.4 mph S15.1 kmh S 17.0 mph27.4 kmh 29.86 in1011.2 mb 0.00 in0.0 mm 0.00 in0.0 mm 0.04 in1.0 mm
01:21 PM 71.2°F21.8°C 66.2°F19.0°C 84% 7.9 mph SSW12.7 kmh SSW 21.0 mph33.8 kmh 29.86 in1011.2 mb 0.00 in0.0 mm 0.00 in0.0 mm 0.04 in1.0 mm
01:26 PM 71.1°F21.7°C 66.1°F18.9°C 84% 7.4 mph SSW11.9 kmh SSW 21.0 mph33.8 kmh 29.86 in1011.2 mb 0.00 in0.0 mm 0.00 in0.0 mm 0.04 in1.0 mm
01:31 PM 71.1°F21.7°C 66.1°F18.9°C 84% 6.3 mph S10.1 kmh S 21.0 mph33.8 kmh 29.85 in1010.8 mb 0.00 in0.0 mm 0.00 in0.0 mm 0.04 in1.0 mm
01:36 PM 71.1°F21.7°C 66.1°F18.9°C 84% 7.8 mph SSW12.6 kmh SSW 21.0 mph33.8 kmh 29.85 in1010.8 mb 0.00 in0.0 mm 0.00 in0.0 mm 0.04 in1.0 mm
01:41 PM 71.0°F21.7°C 66.0°F18.9°C 84% 6.6 mph SSW10.6 kmh SSW 18.0 mph29.0 kmh 29.85 in1010.8 mb 0.00 in0.0 mm 0.00 in0.0 mm 0.04 in1.0 mm
01:46 PM 71.1°F21.7°C 66.1°F18.9°C 84% 8.0 mph SSW12.9 kmh SSW 18.0 mph29.0 kmh 29.84 in1010.5 mb 0.00 in0.0 mm 0.00 in0.0 mm 0.04 in1.0 mm
01:51 PM 71.6°F22.0°C 66.5°F19.2°C 84% 7.2 mph S11.6 kmh S 18.0 mph29.0 kmh 29.83 in1010.2 mb 0.00 in0.0 mm 0.00 in0.0 mm 0.04 in1.0 mm
01:56 PM 71.8°F22.1°C 66.4°F19.1°C 83% 8.9 mph SSW14.3 kmh SSW 17.0 mph27.4 kmh 29.83 in1010.2 mb 0.00 in0.0 mm 0.00 in0.0 mm 0.04 in1.0 mm
02:01 PM 72.0°F22.2°C 66.3°F19.1°C 82% 5.9 mph S9.5 kmh S 17.0 mph27.4 kmh 29.83 in1010.2 mb 0.00 in0.0 mm 0.00 in0.0 mm 0.04 in1.0 mm
02:06 PM 72.2°F22.3°C 66.4°F19.1°C 82% 9.3 mph S15.0 kmh S 19.0 mph30.6 kmh 29.82 in1009.8 mb 0.00 in0.0 mm 0.00 in0.0 mm 0.04 in1.0 mm
02:11 PM 72.2°F22.3°C 66.4°F19.1°C 82% 5.1 mph S8.2 kmh S 19.0 mph30.6 kmh 29.81 in1009.5 mb 0.00 in0.0 mm 0.00 in0.0 mm 0.04 in1.0 mm
02:16 PM 72.0°F22.2°C 66.3°F19.1°C 82% 7.7 mph S12.4 kmh S 19.0 mph30.6 kmh 29.81 in1009.5 mb 0.00 in0.0 mm 0.00 in0.0 mm 0.04 in1.0 mm
02:21 PM 71.7°F22.1°C 66.3°F19.1°C 83% 4.9 mph SSW7.9 kmh SSW 19.0 mph30.6 kmh 29.82 in1009.8 mb 0.00 in0.0 mm 0.00 in0.0 mm 0.04 in1.0 mm
02:26 PM 71.6°F22.0°C 66.5°F19.2°C 84% 5.3 mph SSW8.5 kmh SSW 18.0 mph29.0 kmh 29.82 in1009.8 mb 0.00 in0.0 mm 0.00 in0.0 mm 0.04 in1.0 mm
02:31 PM 71.5°F21.9°C 66.5°F19.2°C 84% 2.6 mph SSW4.2 kmh SSW 18.0 mph29.0 kmh 29.81 in1009.5 mb 0.00 in0.0 mm 0.00 in0.0 mm 0.04 in1.0 mm
02:36 PM 71.6°F22.0°C 65.9°F18.8°C 82% 8.5 mph SSW13.7 kmh SSW 19.0 mph30.6 kmh 29.82 in1009.8 mb 0.00 in0.0 mm 0.00 in0.0 mm 0.04 in1.0 mm
02:41 PM 71.7°F22.1°C 66.0°F18.9°C 82% 4.4 mph WSW7.1 kmh WSW 19.0 mph30.6 kmh 29.84 in1010.5 mb 0.00 in0.0 mm 0.00 in0.0 mm 0.04 in1.0 mm
02:46 PM 68.6°F20.3°C 59.0°F15.0°C 71% 12.6 mph WNW20.3 kmh WNW 27.0 mph43.5 kmh 29.89 in1012.2 mb 0.00 in0.0 mm 0.00 in0.0 mm 0.04 in1.0 mm
02:51 PM 62.5°F16.9°C 57.6°F14.2°C 84% 10.6 mph WNW17.1 kmh WNW 27.0 mph43.5 kmh 29.90 in1012.5 mb 0.13 in3.3 mm 1.56 in39.6 mm 0.17 in4.3 mm
02:56 PM 59.7°F15.4°C 57.0°F13.9°C 91% 9.3 mph WNW15.0 kmh WNW 27.0 mph43.5 kmh 29.90 in1012.5 mb 0.17 in4.3 mm 0.48 in12.2 mm 0.21 in5.3 mm
03:01 PM 58.7°F14.8°C 56.6°F13.7°C 93% 6.5 mph NW10.5 kmh NW 27.0 mph43.5 kmh 29.89 in1012.2 mb 0.18 in4.6 mm 0.01 in0.3 mm 0.22 in5.6 mm
03:06 PM 58.2°F14.6°C 56.4°F13.6°C 94% 11.0 mph W17.7 kmh W 25.0 mph40.2 kmh 29.91 in1012.9 mb 0.22 in5.6 mm 0.48 in12.2 mm 0.26 in6.6 mm
03:11 PM 57.9°F14.4°C 56.4°F13.6°C 95% 5.6 mph WNW9.0 kmh WNW 21.0 mph33.8 kmh 29.90 in1012.5 mb 0.23 in5.8 mm 0.12 in3.0 mm 0.27 in6.9 mm
03:16 PM 57.8°F14.3°C 56.3°F13.5°C 95% 4.1 mph WNW6.6 kmh WNW 21.0 mph33.8 kmh 29.90 in1012.5 mb 0.24 in6.1 mm 0.12 in3.0 mm 0.28 in7.1 mm
03:21 PM 57.7°F14.3°C 56.5°F13.6°C 96% 4.8 mph WNW7.7 kmh WNW 21.0 mph33.8 kmh 29.90 in1012.5 mb 0.24 in6.1 mm 0.00 in0.0 mm 0.28 in7.1 mm
03:26 PM 57.6°F14.2°C 56.1°F13.4°C 95% 7.6 mph WNW12.2 kmh WNW 17.0 mph27.4 kmh 29.89 in1012.2 mb 0.24 in6.1 mm 0.00 in0.0 mm 0.28 in7.1 mm
03:31 PM 57.7°F14.3°C 56.2°F13.4°C 95% 5.2 mph NW8.4 kmh NW 16.0 mph25.7 kmh 29.89 in1012.2 mb 0.24 in6.1 mm 0.00 in0.0 mm 0.28 in7.1 mm
03:35 PM 57.9°F14.4°C 56.4°F13.6°C 95% 6.9 mph WNW11.1 kmh WNW 16.0 mph25.7 kmh 29.90 in1012.5 mb 0.24 in6.1 mm 0.00 in0.0 mm 0.28 in7.1 mm
03:40 PM 58.3°F14.6°C 56.5°F13.6°C 94% 3.0 mph NW4.8 kmh NW 16.0 mph25.7 kmh 29.90 in1012.5 mb 0.24 in6.1 mm 0.00 in0.0 mm 0.28 in7.1 mm
03:45 PM 58.5°F14.7°C 56.7°F13.7°C 94% 4.6 mph WNW7.4 kmh WNW 16.0 mph25.7 kmh 29.90 in1012.5 mb 0.24 in6.1 mm 0.00 in0.0 mm 0.28 in7.1 mm
03:50 PM 58.6°F14.8°C 56.6°F13.7°C 93% 4.3 mph WNW6.9 kmh WNW 14.0 mph22.5 kmh 29.91 in1012.9 mb 0.14 in3.6 mm 0.00 in0.0 mm 0.28 in7.1 mm
03:55 PM 58.7°F14.8°C 56.7°F13.7°C 93% 2.8 mph W4.5 kmh W 11.0 mph17.7 kmh 29.91 in1012.9 mb 0.07 in1.8 mm 0.00 in0.0 mm 0.28 in7.1 mm
04:00 PM 58.7°F14.8°C 56.7°F13.7°C 93% 5.6 mph W9.0 kmh W 11.0 mph17.7 kmh 29.91 in1012.9 mb 0.06 in1.5 mm 0.00 in0.0 mm 0.28 in7.1 mm
04:05 PM 58.8°F14.9°C 56.8°F13.8°C 93% 3.5 mph WNW5.6 kmh WNW 8.0 mph12.9 kmh 29.91 in1012.9 mb 0.03 in0.8 mm 0.00 in0.0 mm 0.28 in7.1 mm
04:10 PM 58.9°F14.9°C 56.9°F13.8°C 93% 3.2 mph WNW5.1 kmh WNW 8.0 mph12.9 kmh 29.91 in1012.9 mb 0.01 in0.3 mm 0.00 in0.0 mm 0.28 in7.1 mm
04:15 PM 59.0°F15.0°C 57.0°F13.9°C 93% 3.1 mph WNW5.0 kmh WNW 8.0 mph12.9 kmh 29.91 in1012.9 mb 0.00 in0.0 mm 0.00 in0.0 mm 0.28 in7.1 mm
04:20 PM 59.1°F15.1°C 57.1°F13.9°C 93% 3.0 mph WNW4.8 kmh WNW 8.0 mph12.9 kmh 29.91 in1012.9 mb 0.00 in0.0 mm 0.00 in0.0 mm 0.28 in7.1 mm
04:25 PM 59.2°F15.1°C 56.9°F13.8°C 92% 4.2 mph W6.8 kmh W 9.0 mph14.5 kmh 29.92 in1013.2 mb 0.00 in0.0 mm 0.00 in0.0 mm 0.28 in7.1 mm
04:30 PM 59.3°F15.2°C 57.0°F13.9°C 92% 3.3 mph W5.3 kmh W 9.0 mph14.5 kmh 29.92 in1013.2 mb 0.00 in0.0 mm 0.00 in0.0 mm 0.28 in7.1 mm
04:35 PM 59.3°F15.2°C 57.0°F13.9°C 92% 2.2 mph WSW3.5 kmh WSW 9.0 mph14.5 kmh 29.92 in1013.2 mb 0.00 in0.0 mm 0.00 in0.0 mm 0.28 in7.1 mm
04:40 PM 59.3°F15.2°C 57.0°F13.9°C 92% 2.7 mph WSW4.3 kmh WSW 9.0 mph14.5 kmh 29.93 in1013.5 mb 0.00 in0.0 mm 0.00 in0.0 mm 0.28 in7.1 mm
04:45 PM 59.3°F15.2°C 57.0°F13.9°C 92% 2.1 mph SW3.4 kmh SW 8.0 mph12.9 kmh 29.94 in1013.9 mb 0.00 in0.0 mm 0.00 in0.0 mm 0.28 in7.1 mm
04:50 PM 59.2°F15.1°C 56.9°F13.8°C 92% 2.7 mph WSW4.3 kmh WSW 8.0 mph12.9 kmh 29.94 in1013.9 mb 0.00 in0.0 mm 0.00 in0.0 mm 0.28 in7.1 mm
04:55 PM 59.2°F15.1°C 56.9°F13.8°C 92% 2.7 mph W4.3 kmh W 8.0 mph12.9 kmh 29.95 in1014.2 mb 0.00 in0.0 mm 0.00 in0.0 mm 0.28 in7.1 mm
05:00 PM 59.2°F15.1°C 56.9°F13.8°C 92% 2.8 mph W4.5 kmh W 7.0 mph11.3 kmh 29.95 in1014.2 mb 0.00 in0.0 mm 0.00 in0.0 mm 0.28 in7.1 mm
05:05 PM 59.3°F15.2°C 57.0°F13.9°C 92% 2.9 mph W4.7 kmh W 8.0 mph12.9 kmh 29.95 in1014.2 mb 0.00 in0.0 mm 0.00 in0.0 mm 0.28 in7.1 mm
05:10 PM 59.3°F15.2°C 57.0°F13.9°C 92% 3.3 mph WSW5.3 kmh WSW 9.0 mph14.5 kmh 29.94 in1013.9 mb 0.00 in0.0 mm 0.00 in0.0 mm 0.28 in7.1 mm
05:15 PM 59.4°F15.2°C 57.0°F13.9°C 92% 2.3 mph WSW3.7 kmh WSW 9.0 mph14.5 kmh 29.94 in1013.9 mb 0.00 in0.0 mm 0.00 in0.0 mm 0.28 in7.1 mm
05:20 PM 59.5°F15.3°C 57.1°F13.9°C 92% 1.8 mph W2.9 kmh W 9.0 mph14.5 kmh 29.94 in1013.9 mb 0.00 in0.0 mm 0.00 in0.0 mm 0.28 in7.1 mm
05:25 PM 59.5°F15.3°C 57.1°F13.9°C 92% 1.6 mph W2.6 kmh W 9.0 mph14.5 kmh 29.93 in1013.5 mb 0.00 in0.0 mm 0.00 in0.0 mm 0.28 in7.1 mm
05:30 PM 59.6°F15.3°C 56.9°F13.8°C 91% 3.1 mph W5.0 kmh W 7.0 mph11.3 kmh 29.94 in1013.9 mb 0.00 in0.0 mm 0.00 in0.0 mm 0.28 in7.1 mm
05:35 PM 59.7°F15.4°C 57.0°F13.9°C 91% 2.8 mph W4.5 kmh W 7.0 mph11.3 kmh 29.94 in1013.9 mb 0.00 in0.0 mm 0.00 in0.0 mm 0.28 in7.1 mm
05:40 PM 59.7°F15.4°C 57.0°F13.9°C 91% 1.5 mph W2.4 kmh W 7.0 mph11.3 kmh 29.94 in1013.9 mb 0.00 in0.0 mm 0.00 in0.0 mm 0.28 in7.1 mm
05:45 PM 59.7°F15.4°C 57.0°F13.9°C 91% 2.4 mph WSW3.9 kmh WSW 7.0 mph11.3 kmh 29.94 in1013.9 mb 0.00 in0.0 mm 0.00 in0.0 mm 0.28 in7.1 mm
05:50 PM 59.7°F15.4°C 57.0°F13.9°C 91% 2.6 mph WSW4.2 kmh WSW 8.0 mph12.9 kmh 29.94 in1013.9 mb 0.00 in0.0 mm 0.00 in0.0 mm 0.28 in7.1 mm
05:55 PM 59.7°F15.4°C 57.0°F13.9°C 91% 3.7 mph WSW6.0 kmh WSW 8.0 mph12.9 kmh 29.93 in1013.5 mb 0.00 in0.0 mm 0.00 in0.0 mm 0.28 in7.1 mm
06:00 PM 59.6°F15.3°C 56.9°F13.8°C 91% 3.2 mph WSW5.1 kmh WSW 8.0 mph12.9 kmh 29.93 in1013.5 mb 0.00 in0.0 mm 0.00 in0.0 mm 0.28 in7.1 mm
06:05 PM 59.6°F15.3°C 56.9°F13.8°C 91% 2.7 mph WSW4.3 kmh WSW 8.0 mph12.9 kmh 29.93 in1013.5 mb 0.00 in0.0 mm 0.00 in0.0 mm 0.28 in7.1 mm
06:10 PM 59.6°F15.3°C 56.9°F13.8°C 91% 2.9 mph W4.7 kmh W 9.0 mph14.5 kmh 29.93 in1013.5 mb 0.00 in0.0 mm 0.00 in0.0 mm 0.28 in7.1 mm
06:15 PM 59.5°F15.3°C 56.5°F13.6°C 90% 4.6 mph W7.4 kmh W 9.0 mph14.5 kmh 29.93 in1013.5 mb 0.00 in0.0 mm 0.00 in0.0 mm 0.28 in7.1 mm
06:20 PM 59.7°F15.4°C 56.4°F13.6°C 89% 3.1 mph WSW5.0 kmh WSW 9.0 mph14.5 kmh 29.93 in1013.5 mb 0.00 in0.0 mm 0.00 in0.0 mm 0.28 in7.1 mm
06:25 PM 59.6°F15.3°C 56.3°F13.5°C 89% 5.1 mph W8.2 kmh W 9.0 mph14.5 kmh 29.93 in1013.5 mb 0.00 in0.0 mm 0.00 in0.0 mm 0.28 in7.1 mm
06:30 PM 59.7°F15.4°C 56.4°F13.6°C 89% 5.2 mph W8.4 kmh W 13.0 mph20.9 kmh 29.94 in1013.9 mb 0.00 in0.0 mm 0.00 in0.0 mm 0.28 in7.1 mm
06:35 PM 59.7°F15.4°C 56.1°F13.4°C 88% 2.3 mph WSW3.7 kmh WSW 13.0 mph20.9 kmh 29.94 in1013.9 mb 0.00 in0.0 mm 0.00 in0.0 mm 0.28 in7.1 mm
06:40 PM 59.6°F15.3°C 56.0°F13.3°C 88% 5.6 mph WSW9.0 kmh WSW 13.0 mph20.9 kmh 29.94 in1013.9 mb 0.00 in0.0 mm 0.00 in0.0 mm 0.28 in7.1 mm
06:45 PM 59.5°F15.3°C 55.9°F13.3°C 88% 2.4 mph WSW3.9 kmh WSW 13.0 mph20.9 kmh 29.94 in1013.9 mb 0.00 in0.0 mm 0.00 in0.0 mm 0.28 in7.1 mm
06:50 PM 59.4°F15.2°C 55.8°F13.2°C 88% 4.2 mph W6.8 kmh W 13.0 mph20.9 kmh 29.94 in1013.9 mb 0.00 in0.0 mm 0.00 in0.0 mm 0.28 in7.1 mm
06:55 PM 59.4°F15.2°C 55.8°F13.2°C 88% 4.1 mph W6.6 kmh W 13.0 mph20.9 kmh 29.93 in1013.5 mb 0.00 in0.0 mm 0.00 in0.0 mm 0.28 in7.1 mm
07:00 PM 59.3°F15.2°C 55.7°F13.2°C 88% 4.5 mph WSW7.2 kmh WSW 10.0 mph16.1 kmh 29.93 in1013.5 mb 0.00 in0.0 mm 0.00 in0.0 mm 0.28 in7.1 mm
07:05 PM 59.3°F15.2°C 55.7°F13.2°C 88% 3.8 mph WSW6.1 kmh WSW 10.0 mph16.1 kmh 29.93 in1013.5 mb 0.00 in0.0 mm 0.00 in0.0 mm 0.28 in7.1 mm
07:10 PM 59.3°F15.2°C 55.7°F13.2°C 88% 4.4 mph WSW7.1 kmh WSW 10.0 mph16.1 kmh 29.94 in1013.9 mb 0.00 in0.0 mm 0.00 in0.0 mm 0.28 in7.1 mm
07:15 PM 59.2°F15.1°C 55.6°F13.1°C 88% 3.5 mph WSW5.6 kmh WSW 10.0 mph16.1 kmh 29.94 in1013.9 mb 0.00 in0.0 mm 0.00 in0.0 mm 0.28 in7.1 mm
07:20 PM 59.1°F15.1°C 55.8°F13.2°C 89% 2.3 mph WSW3.7 kmh WSW 10.0 mph16.1 kmh 29.94 in1013.9 mb 0.00 in0.0 mm 0.00 in0.0 mm 0.28 in7.1 mm
07:25 PM 59.0°F15.0°C 55.8°F13.2°C 89% 1.7 mph WSW2.7 kmh WSW 9.0 mph14.5 kmh 29.94 in1013.9 mb 0.00 in0.0 mm 0.00 in0.0 mm 0.28 in7.1 mm
07:30 PM 58.9°F14.9°C 55.7°F13.2°C 89% 1.0 mph WSW1.6 kmh WSW 9.0 mph14.5 kmh 29.94 in1013.9 mb 0.00 in0.0 mm 0.00 in0.0 mm 0.28 in7.1 mm
07:35 PM 59.0°F15.0°C 55.7°F13.2°C 89% 5.5 mph WSW8.9 kmh WSW 10.0 mph16.1 kmh 29.95 in1014.2 mb 0.00 in0.0 mm 0.00 in0.0 mm 0.28 in7.1 mm
07:40 PM 59.1°F15.1°C 55.5°F13.1°C 88% 3.8 mph WSW6.1 kmh WSW 12.0 mph19.3 kmh 29.98 in1015.2 mb 0.00 in0.0 mm 0.00 in0.0 mm 0.28 in7.1 mm
07:45 PM 59.1°F15.1°C 55.5°F13.1°C 88% 6.1 mph WSW9.8 kmh WSW 16.0 mph25.7 kmh 29.98 in1015.2 mb 0.00 in0.0 mm 0.00 in0.0 mm 0.28 in7.1 mm
07:50 PM 59.0°F15.0°C 55.1°F12.8°C 87% 7.7 mph W12.4 kmh W 16.0 mph25.7 kmh 29.97 in1014.9 mb 0.00 in0.0 mm 0.00 in0.0 mm 0.28 in7.1 mm
07:55 PM 58.6°F14.8°C 55.0°F12.8°C 88% 6.2 mph W10.0 kmh W 16.0 mph25.7 kmh 29.97 in1014.9 mb 0.00 in0.0 mm 0.00 in0.0 mm 0.28 in7.1 mm
08:00 PM 58.3°F14.6°C 54.7°F12.6°C 88% 5.0 mph W8.0 kmh W 16.0 mph25.7 kmh 29.96 in1014.6 mb 0.00 in0.0 mm 0.00 in0.0 mm 0.28 in7.1 mm
08:05 PM 58.0°F14.4°C 54.4°F12.4°C 88% 5.5 mph W8.9 kmh W 16.0 mph25.7 kmh 29.96 in1014.6 mb 0.00 in0.0 mm 0.00 in0.0 mm 0.28 in7.1 mm
08:10 PM 57.8°F14.3°C 54.6°F12.6°C 89% 3.3 mph W5.3 kmh W 16.0 mph25.7 kmh 29.95 in1014.2 mb 0.00 in0.0 mm 0.00 in0.0 mm 0.28 in7.1 mm
08:15 PM 57.6°F14.2°C 54.4°F12.4°C 89% 4.0 mph W6.4 kmh W 16.0 mph25.7 kmh 29.95 in1014.2 mb 0.00 in0.0 mm 0.00 in0.0 mm 0.28 in7.1 mm
08:20 PM 57.5°F14.2°C 54.3°F12.4°C 89% 3.4 mph W5.5 kmh W 11.0 mph17.7 kmh 29.94 in1013.9 mb 0.00 in0.0 mm 0.00 in0.0 mm 0.28 in7.1 mm
08:25 PM 57.4°F14.1°C 54.2°F12.3°C 89% 3.6 mph WSW5.8 kmh WSW 10.0 mph16.1 kmh 29.96 in1014.6 mb 0.00 in0.0 mm 0.00 in0.0 mm 0.28 in7.1 mm
08:30 PM 57.3°F14.1°C 54.4°F12.4°C 90% 3.7 mph W6.0 kmh W 10.0 mph16.1 kmh 29.96 in1014.6 mb 0.00 in0.0 mm 0.00 in0.0 mm 0.28 in7.1 mm
08:35 PM 57.2°F14.0°C 54.3°F12.4°C 90% 2.8 mph WSW4.5 kmh WSW 10.0 mph16.1 kmh 29.96 in1014.6 mb 0.00 in0.0 mm 0.00 in0.0 mm 0.28 in7.1 mm
08:40 PM 57.0°F13.9°C 54.1°F12.3°C 90% 3.8 mph WSW6.1 kmh WSW 10.0 mph16.1 kmh 29.96 in1014.6 mb 0.00 in0.0 mm 0.00 in0.0 mm 0.28 in7.1 mm
08:45 PM 57.0°F13.9°C 54.1°F12.3°C 90% 3.5 mph W5.6 kmh W 10.0 mph16.1 kmh 29.98 in1015.2 mb 0.00 in0.0 mm 0.00 in0.0 mm 0.28 in7.1 mm
08:50 PM 56.9°F13.8°C 54.0°F12.2°C 90% 3.7 mph W6.0 kmh W 12.0 mph19.3 kmh 29.98 in1015.2 mb 0.00 in0.0 mm 0.00 in0.0 mm 0.28 in7.1 mm
08:55 PM 56.9°F13.8°C 54.0°F12.2°C 90% 3.8 mph WSW6.1 kmh WSW 12.0 mph19.3 kmh 29.97 in1014.9 mb 0.00 in0.0 mm 0.00 in0.0 mm 0.28 in7.1 mm
09:00 PM 56.8°F13.8°C 53.9°F12.2°C 90% 2.9 mph WSW4.7 kmh WSW 13.0 mph20.9 kmh 29.98 in1015.2 mb 0.00 in0.0 mm 0.00 in0.0 mm 0.28 in7.1 mm
09:05 PM 56.6°F13.7°C 54.0°F12.2°C 91% 2.6 mph WSW4.2 kmh WSW 13.0 mph20.9 kmh 29.98 in1015.2 mb 0.01 in0.3 mm 0.12 in3.0 mm 0.29 in7.4 mm
09:10 PM 56.4°F13.6°C 54.1°F12.3°C 92% 4.2 mph SW6.8 kmh SW 13.0 mph20.9 kmh 29.99 in1015.6 mb 0.01 in0.3 mm 0.00 in0.0 mm 0.29 in7.4 mm
09:15 PM 56.2°F13.4°C 53.9°F12.2°C 92% 3.4 mph W5.5 kmh W 13.0 mph20.9 kmh 29.98 in1015.2 mb 0.01 in0.3 mm 0.00 in0.0 mm 0.29 in7.4 mm
09:20 PM 56.1°F13.4°C 53.8°F12.1°C 92% 4.0 mph WSW6.4 kmh WSW 11.0 mph17.7 kmh 29.98 in1015.2 mb 0.01 in0.3 mm 0.00 in0.0 mm 0.29 in7.4 mm
09:25 PM 56.0°F13.3°C 54.0°F12.2°C 93% 3.1 mph WSW5.0 kmh WSW 11.0 mph17.7 kmh 29.98 in1015.2 mb 0.01 in0.3 mm 0.00 in0.0 mm 0.29 in7.4 mm
09:30 PM 55.9°F13.3°C 53.9°F12.2°C 93% 4.3 mph WSW6.9 kmh WSW 11.0 mph17.7 kmh 29.99 in1015.6 mb 0.01 in0.3 mm 0.00 in0.0 mm 0.29 in7.4 mm
09:34 PM 55.8°F13.2°C 53.8°F12.1°C 93% 2.9 mph WSW4.7 kmh WSW 8.0 mph12.9 kmh 29.98 in1015.2 mb 0.01 in0.3 mm 0.00 in0.0 mm 0.29 in7.4 mm
09:39 PM 55.8°F13.2°C 53.8°F12.1°C 93% 2.7 mph WSW4.3 kmh WSW 10.0 mph16.1 kmh 29.98 in1015.2 mb 0.01 in0.3 mm 0.00 in0.0 mm 0.29 in7.4 mm
09:44 PM 55.8°F13.2°C 53.8°F12.1°C 93% 3.9 mph WSW6.3 kmh WSW 10.0 mph16.1 kmh 29.98 in1015.2 mb 0.01 in0.3 mm 0.00 in0.0 mm 0.29 in7.4 mm
09:49 PM 55.8°F13.2°C 53.5°F11.9°C 92% 5.1 mph WSW8.2 kmh WSW 10.0 mph16.1 kmh 29.98 in1015.2 mb 0.01 in0.3 mm 0.00 in0.0 mm 0.29 in7.4 mm
09:54 PM 55.8°F13.2°C 53.5°F11.9°C 92% 4.3 mph W6.9 kmh W 9.0 mph14.5 kmh 29.97 in1014.9 mb 0.01 in0.3 mm 0.00 in0.0 mm 0.29 in7.4 mm
09:59 PM 55.8°F13.2°C 53.5°F11.9°C 92% 4.3 mph WNW6.9 kmh WNW 10.0 mph16.1 kmh 29.96 in1014.6 mb 0.01 in0.3 mm 0.00 in0.0 mm 0.29 in7.4 mm
10:04 PM 55.7°F13.2°C 53.4°F11.9°C 92% 3.4 mph W5.5 kmh W 10.0 mph16.1 kmh 29.97 in1014.9 mb 0.00 in0.0 mm 0.00 in0.0 mm 0.29 in7.4 mm
10:09 PM 55.7°F13.2°C 53.4°F11.9°C 92% 2.9 mph W4.7 kmh W 10.0 mph16.1 kmh 29.98 in1015.2 mb 0.00 in0.0 mm 0.00 in0.0 mm 0.29 in7.4 mm
10:14 PM 55.7°F13.2°C 53.4°F11.9°C 92% 3.1 mph W5.0 kmh W 10.0 mph16.1 kmh 29.98 in1015.2 mb 0.00 in0.0 mm 0.00 in0.0 mm 0.29 in7.4 mm
10:19 PM 55.7°F13.2°C 53.1°F11.7°C 91% 4.4 mph WNW7.1 kmh WNW 14.0 mph22.5 kmh 29.98 in1015.2 mb 0.00 in0.0 mm 0.00 in0.0 mm 0.29 in7.4 mm
10:24 PM 55.8°F13.2°C 53.2°F11.8°C 91% 5.0 mph W8.0 kmh W 14.0 mph22.5 kmh 29.99 in1015.6 mb 0.00 in0.0 mm 0.00 in0.0 mm 0.29 in7.4 mm
10:29 PM 55.8°F13.2°C 52.9°F11.6°C 90% 4.6 mph WNW7.4 kmh WNW 14.0 mph22.5 kmh 29.98 in1015.2 mb 0.00 in0.0 mm 0.00 in0.0 mm 0.29 in7.4 mm
10:34 PM 55.8°F13.2°C 52.9°F11.6°C 90% 6.6 mph W10.6 kmh W 14.0 mph22.5 kmh 29.97 in1014.9 mb 0.00 in0.0 mm 0.00 in0.0 mm 0.29 in7.4 mm
10:39 PM 55.8°F13.2°C 52.9°F11.6°C 90% 5.9 mph WNW9.5 kmh WNW 12.0 mph19.3 kmh 29.98 in1015.2 mb 0.00 in0.0 mm 0.00 in0.0 mm 0.29 in7.4 mm
10:44 PM 55.8°F13.2°C 52.6°F11.4°C 89% 8.0 mph W12.9 kmh W 15.0 mph24.1 kmh 29.99 in1015.6 mb 0.00 in0.0 mm 0.00 in0.0 mm 0.29 in7.4 mm
10:49 PM 55.7°F13.2°C 52.2°F11.2°C 88% 6.9 mph WNW11.1 kmh WNW 15.0 mph24.1 kmh 29.99 in1015.6 mb 0.00 in0.0 mm 0.00 in0.0 mm 0.29 in7.4 mm
10:54 PM 55.6°F13.1°C 51.8°F11.0°C 87% 3.1 mph WNW5.0 kmh WNW 15.0 mph24.1 kmh 30.00 in1015.9 mb 0.00 in0.0 mm 0.00 in0.0 mm 0.29 in7.4 mm
10:59 PM 55.4°F13.0°C 50.7°F10.4°C 84% 9.2 mph WNW14.8 kmh WNW 19.0 mph30.6 kmh 30.00 in1015.9 mb 0.00 in0.0 mm 0.00 in0.0 mm 0.29 in7.4 mm
11:04 PM 55.3°F12.9°C 50.2°F10.1°C 83% 6.2 mph WNW10.0 kmh WNW 19.0 mph30.6 kmh 29.99 in1015.6 mb 0.00 in0.0 mm 0.00 in0.0 mm 0.29 in7.4 mm
11:09 PM 54.8°F12.7°C 47.1°F8.4°C 75% 11.8 mph WNW19.0 kmh WNW 22.0 mph35.4 kmh 29.99 in1015.6 mb 0.00 in0.0 mm 0.00 in0.0 mm 0.29 in7.4 mm
11:14 PM 54.3°F12.4°C 46.6°F8.1°C 75% 10.5 mph NW16.9 kmh NW 22.0 mph35.4 kmh 30.00 in1015.9 mb 0.00 in0.0 mm 0.00 in0.0 mm 0.29 in7.4 mm
11:19 PM 53.8°F12.1°C 45.4°F7.4°C 73% 10.8 mph NW17.4 kmh NW 22.0 mph35.4 kmh 30.01 in1016.3 mb 0.00 in0.0 mm 0.00 in0.0 mm 0.29 in7.4 mm
11:24 PM 53.6°F12.0°C 44.9°F7.2°C 72% 10.5 mph NW16.9 kmh NW 22.0 mph35.4 kmh 30.01 in1016.3 mb 0.00 in0.0 mm 0.00 in0.0 mm 0.29 in7.4 mm
11:29 PM 53.3°F11.8°C 45.3°F7.4°C 74% 7.4 mph NW11.9 kmh NW 21.0 mph33.8 kmh 30.03 in1016.9 mb 0.00 in0.0 mm 0.00 in0.0 mm 0.29 in7.4 mm
11:34 PM 52.9°F11.6°C 44.9°F7.2°C 74% 6.5 mph WNW10.5 kmh WNW 21.0 mph33.8 kmh 30.04 in1017.3 mb 0.00 in0.0 mm 0.00 in0.0 mm 0.29 in7.4 mm
11:39 PM 52.7°F11.5°C 44.7°F7.1°C 74% 5.4 mph WNW8.7 kmh WNW 21.0 mph33.8 kmh 30.04 in1017.3 mb 0.00 in0.0 mm 0.00 in0.0 mm 0.29 in7.4 mm
11:44 PM 52.5°F11.4°C 44.5°F6.9°C 74% 6.2 mph WNW10.0 kmh WNW 18.0 mph29.0 kmh 30.05 in1017.6 mb 0.00 in0.0 mm 0.00 in0.0 mm 0.29 in7.4 mm
11:49 PM 52.3°F11.3°C 44.3°F6.8°C 74% 7.5 mph NW12.1 kmh NW 18.0 mph29.0 kmh 30.05 in1017.6 mb 0.00 in0.0 mm 0.00 in0.0 mm 0.29 in7.4 mm
11:54 PM 52.1°F11.2°C 44.2°F6.8°C 74% 4.6 mph NW7.4 kmh NW 18.0 mph29.0 kmh 30.05 in1017.6 mb 0.00 in0.0 mm 0.00 in0.0 mm 0.29 in7.4 mm
11:59 PM 51.9°F11.1°C 44.3°F6.8°C 75% 4.5 mph WNW7.2 kmh WNW 18.0 mph29.0 kmh 30.05 in1017.6 mb 0.00 in0.0 mm 0.00 in0.0 mm 0.29 in7.4 mm